Time;durP1;ratioP1;P1;durP2;ratioP2;P2;SDS_P1;SDS_P2;PMS_P1;PMS_P2;Temp;Humidity;BMP_temperature;BMP_pressure;BME280_temperature;BME280_humidity;BME280_pressure;Samples;Min_cycle;Max_cycle;Signal;HPM_P1;HPM_P2
2023/05/06 00:00:11;;;;;;;8.55;5.90;;;;;;;;;;5089776;28;20087;-65
2023/05/06 00:02:38;;;;;;;7.28;6.20;;;;;;;;;;5090868;28;20036;-65
2023/05/06 00:05:04;;;;;;;7.45;5.45;;;;;;;;;;5083319;28;20097;-65
2023/05/06 00:07:30;;;;;;;7.18;5.28;;;;;;;;;;5072332;28;20040;-64
2023/05/06 00:09:56;;;;;;;8.13;5.80;;;;;;;;;;5079278;28;20047;-65
2023/05/06 00:12:21;;;;;;;7.10;6.05;;;;;;;;;;5078650;28;20040;-64
2023/05/06 00:14:47;;;;;;;4.35;3.88;;;;;;;;;;5086619;28;20093;-64
2023/05/06 00:17:14;;;;;;;5.88;4.95;;;;;;;;;;5087587;28;20063;-65
2023/05/06 00:19:40;;;;;;;7.47;5.38;;;;;;;;;;5092298;28;20039;-64
2023/05/06 00:22:05;;;;;;;7.15;4.55;;;;;;;;;;5089430;28;20452;-65
2023/05/06 00:24:31;;;;;;;6.60;5.18;;;;;;;;;;5090301;28;20032;-64
2023/05/06 00:26:57;;;;;;;7.45;6.28;;;;;;;;;;5091817;28;20063;-65
2023/05/06 00:29:23;;;;;;;8.57;6.93;;;;;;;;;;5087576;28;20115;-65
2023/05/06 00:31:49;;;;;;;10.15;6.30;;;;;;;;;;5090289;28;20047;-65
2023/05/06 00:34:15;;;;;;;6.45;5.53;;;;;;;;;;5083162;28;20052;-65
2023/05/06 00:36:41;;;;;;;7.53;5.85;;;;;;;;;;5089949;28;20494;-65
2023/05/06 00:39:08;;;;;;;5.93;5.30;;;;;;;;;;5090852;28;20036;-65
2023/05/06 00:41:34;;;;;;;7.65;6.18;;;;;;;;;;5089746;28;20039;-64
2023/05/06 00:44:00;;;;;;;8.38;6.15;;;;;;;;;;5082966;28;20050;-65
2023/05/06 00:46:26;;;;;;;18.23;5.68;;;;;;;;;;5090166;28;20039;-65
2023/05/06 00:48:52;;;;;;;71.55;8.15;;;;;;;;;;5088304;28;20043;-64
2023/05/06 00:51:18;;;;;;;26.40;6.05;;;;;;;;;;5091075;28;20405;-64
2023/05/06 00:53:47;;;;;;;17.20;5.65;;;;;;;;;;5081209;28;20047;-65
2023/05/06 00:56:14;;;;;;;16.70;4.70;;;;;;;;;;5089174;28;20040;-65
2023/05/06 00:58:40;;;;;;;13.27;3.72;;;;;;;;;;5076896;28;20036;-64
2023/05/06 01:01:07;;;;;;;5.35;3.78;;;;;;;;;;5071438;28;20489;-65
2023/05/06 01:03:33;;;;;;;20.25;4.97;;;;;;;;;;5071226;28;20043;-65
2023/05/06 01:06:17;;;;;;;27.65;4.32;;;;;;;;;;5087671;28;20065;-64
2023/05/06 01:09:02;;;;;;;43.83;4.50;;;;;;;;;;5083138;28;20032;-64
2023/05/06 01:11:32;;;;;;;5.72;3.70;;;;;;;;;;5084043;28;20054;-65
2023/05/06 01:14:01;;;;;;;4.32;2.92;;;;;;;;;;5089805;28;20036;-65
2023/05/06 01:16:29;;;;;;;5.72;2.92;;;;;;;;;;5091279;28;20043;-65
2023/05/06 01:18:58;;;;;;;6.20;4.18;;;;;;;;;;5091078;28;20040;-65
2023/05/06 01:21:33;;;;;;;6.10;2.97;;;;;;;;;;5080121;28;20036;-65
2023/05/06 01:24:00;;;;;;;2.75;2.55;;;;;;;;;;5086926;28;20119;-65
2023/05/06 01:26:26;;;;;;;6.47;2.38;;;;;;;;;;5089392;28;20546;-65
2023/05/06 01:28:52;;;;;;;2.47;2.10;;;;;;;;;;5084168;28;20570;-65
2023/05/06 01:31:26;;;;;;;2.70;2.20;;;;;;;;;;5089552;28;20036;-65
2023/05/06 01:34:12;;;;;;;3.70;2.72;;;;;;;;;;5089404;28;20048;-65
2023/05/06 01:36:41;;;;;;;3.35;2.30;;;;;;;;;;5087384;22;20048;-62
2023/05/06 01:39:12;;;;;;;6.13;3.47;;;;;;;;;;5066329;28;20401;-62
2023/05/06 01:41:40;;;;;;;4.72;2.85;;;;;;;;;;5063420;28;20052;-62
2023/05/06 01:44:07;;;;;;;5.05;2.75;;;;;;;;;;5071301;28;20402;-62
2023/05/06 01:46:34;;;;;;;9.35;4.00;;;;;;;;;;5068754;28;20044;-62
2023/05/06 01:49:01;;;;;;;6.20;4.03;;;;;;;;;;5071917;28;20090;-62
2023/05/06 01:51:27;;;;;;;10.35;4.05;;;;;;;;;;5073773;28;20037;-62
2023/05/06 01:53:53;;;;;;;8.38;4.50;;;;;;;;;;5074866;28;20044;-62
2023/05/06 01:56:19;;;;;;;6.88;4.68;;;;;;;;;;5072100;28;20417;-62
2023/05/06 01:58:45;;;;;;;9.27;5.18;;;;;;;;;;5070258;28;20037;-63
2023/05/06 02:01:11;;;;;;;9.20;5.30;;;;;;;;;;5072040;28;20032;-63
2023/05/06 02:03:37;;;;;;;11.98;6.68;;;;;;;;;;5073321;28;20036;-62
2023/05/06 02:06:03;;;;;;;11.68;6.45;;;;;;;;;;5072239;28;20051;-62
2023/05/06 02:08:29;;;;;;;15.32;5.85;;;;;;;;;;5071656;28;20040;-62
2023/05/06 02:10:55;;;;;;;10.13;5.47;;;;;;;;;;5062256;28;20384;-62
2023/05/06 02:13:23;;;;;;;10.20;6.45;;;;;;;;;;5073336;28;20029;-62
2023/05/06 02:15:53;;;;;;;11.02;6.88;;;;;;;;;;5070181;28;20131;-62
2023/05/06 02:18:19;;;;;;;31.13;6.63;;;;;;;;;;5073296;28;20437;-62
2023/05/06 02:20:45;;;;;;;24.23;5.07;;;;;;;;;;5071430;28;20041;-62
2023/05/06 02:23:11;;;;;;;50.90;6.00;;;;;;;;;;5073442;28;20056;-63
2023/05/06 02:25:37;;;;;;;60.55;7.30;;;;;;;;;;5072101;28;20076;-62
2023/05/06 02:28:04;;;;;;;25.77;6.57;;;;;;;;;;5071803;28;20076;-62
2023/05/06 02:30:31;;;;;;;20.30;6.70;;;;;;;;;;5073127;28;20111;-62
2023/05/06 02:32:57;;;;;;;15.63;5.75;;;;;;;;;;5072616;28;20397;-62
2023/05/06 02:35:23;;;;;;;18.50;5.28;;;;;;;;;;5072039;28;20123;-62
2023/05/06 02:37:49;;;;;;;28.13;6.00;;;;;;;;;;5073584;28;20037;-62
2023/05/06 02:40:15;;;;;;;14.40;5.18;;;;;;;;;;5073319;28;20084;-62
2023/05/06 02:42:41;;;;;;;11.70;5.25;;;;;;;;;;5072109;28;20064;-63
2023/05/06 02:45:07;;;;;;;13.77;5.32;;;;;;;;;;5070959;28;20123;-62
2023/05/06 02:47:33;;;;;;;12.25;5.63;;;;;;;;;;5072026;28;20097;-62
2023/05/06 02:49:59;;;;;;;20.98;6.10;;;;;;;;;;5072422;28;20045;-62
2023/05/06 02:52:25;;;;;;;17.83;6.05;;;;;;;;;;5071564;28;20024;-63
2023/05/06 02:54:51;;;;;;;43.83;6.15;;;;;;;;;;5070828;28;20033;-62
2023/05/06 02:57:17;;;;;;;39.40;5.65;;;;;;;;;;5073485;28;20043;-62
2023/05/06 02:59:43;;;;;;;74.00;7.57;;;;;;;;;;5072237;28;20036;-62
2023/05/06 03:02:09;;;;;;;117.80;9.27;;;;;;;;;;5071996;28;20111;-62
2023/05/06 03:04:35;;;;;;;34.08;5.65;;;;;;;;;;5070736;28;20043;-63
2023/05/06 03:07:01;;;;;;;42.28;5.95;;;;;;;;;;5073560;28;20036;-62
2023/05/06 03:09:29;;;;;;;44.88;6.00;;;;;;;;;;5072557;28;20433;-63
2023/05/06 03:11:56;;;;;;;65.80;6.97;;;;;;;;;;5072888;28;20048;-62
2023/05/06 03:14:22;;;;;;;67.72;6.85;;;;;;;;;;5066274;28;20075;-62
2023/05/06 03:16:48;;;;;;;81.90;7.22;;;;;;;;;;5073046;28;20080;-62
2023/05/06 03:19:14;;;;;;;78.50;7.07;;;;;;;;;;5072528;28;20119;-62
2023/05/06 03:21:40;;;;;;;66.25;6.90;;;;;;;;;;5072143;28;20040;-62
2023/05/06 03:24:06;;;;;;;75.20;7.28;;;;;;;;;;5070988;28;20432;-62
2023/05/06 03:26:31;;;;;;;51.80;6.40;;;;;;;;;;5071252;28;20044;-62
2023/05/06 03:28:57;;;;;;;25.52;5.18;;;;;;;;;;5070505;28;20114;-62
2023/05/06 03:31:24;;;;;;;48.17;5.57;;;;;;;;;;5072706;28;20041;-62
2023/05/06 03:33:50;;;;;;;32.72;5.20;;;;;;;;;;5072232;28;20045;-62
2023/05/06 03:36:16;;;;;;;29.05;4.68;;;;;;;;;;5070222;28;20047;-62
2023/05/06 03:38:42;;;;;;;12.13;4.05;;;;;;;;;;5071222;28;20036;-62
2023/05/06 03:41:08;;;;;;;18.30;4.22;;;;;;;;;;5068448;28;20055;-62
2023/05/06 03:43:35;;;;;;;4.38;3.47;;;;;;;;;;5071304;28;20029;-62
2023/05/06 03:46:00;;;;;;;8.75;4.18;;;;;;;;;;5062122;28;20402;-62
2023/05/06 03:48:26;;;;;;;13.82;4.30;;;;;;;;;;5072718;28;20041;-62
2023/05/06 03:50:52;;;;;;;8.75;3.45;;;;;;;;;;5069447;28;20449;-62
2023/05/06 03:53:18;;;;;;;7.80;4.18;;;;;;;;;;5067162;28;20063;-62
2023/05/06 03:55:44;;;;;;;13.13;4.10;;;;;;;;;;5069246;28;20052;-62
2023/05/06 03:58:10;;;;;;;16.13;4.03;;;;;;;;;;5071313;28;20044;-62
2023/05/06 04:00:36;;;;;;;8.50;3.97;;;;;;;;;;5070352;28;20549;-62
2023/05/06 04:03:02;;;;;;;18.95;4.28;;;;;;;;;;5068986;28;20044;-62
2023/05/06 04:05:28;;;;;;;20.83;4.80;;;;;;;;;;5070683;28;20082;-62
2023/05/06 04:07:54;;;;;;;11.45;4.07;;;;;;;;;;5066249;28;20124;-62
2023/05/06 04:10:20;;;;;;;11.32;4.10;;;;;;;;;;5066839;28;20078;-62
2023/05/06 04:12:46;;;;;;;8.23;3.85;;;;;;;;;;5066400;28;20490;-62
2023/05/06 04:15:12;;;;;;;15.93;4.57;;;;;;;;;;5070397;28;20176;-62
2023/05/06 04:17:38;;;;;;;19.13;4.75;;;;;;;;;;5066293;28;20033;-62
2023/05/06 04:20:06;;;;;;;6.38;4.30;;;;;;;;;;5068193;28;20194;-62
2023/05/06 04:22:32;;;;;;;17.20;4.35;;;;;;;;;;5069274;28;20040;-62
2023/05/06 04:24:59;;;;;;;21.45;4.97;;;;;;;;;;5071164;28;20089;-62
2023/05/06 04:27:28;;;;;;;9.50;4.30;;;;;;;;;;5070996;28;20037;-62
2023/05/06 04:29:54;;;;;;;18.85;5.00;;;;;;;;;;5069867;28;20047;-62
2023/05/06 04:32:24;;;;;;;22.85;4.65;;;;;;;;;;5071234;28;20036;-62
2023/05/06 04:34:50;;;;;;;25.63;5.80;;;;;;;;;;5061333;28;20091;-62
2023/05/06 04:37:17;;;;;;;26.02;5.95;;;;;;;;;;5052145;28;20056;-62
2023/05/06 04:39:45;;;;;;;25.98;5.88;;;;;;;;;;5068003;28;20480;-62
2023/05/06 04:42:11;;;;;;;17.85;5.43;;;;;;;;;;5070623;28;20044;-62
2023/05/06 04:44:37;;;;;;;17.90;5.45;;;;;;;;;;5069716;28;20039;-62
2023/05/06 04:47:03;;;;;;;12.73;5.10;;;;;;;;;;5067128;28;20036;-62
2023/05/06 04:49:29;;;;;;;20.23;5.47;;;;;;;;;;5071211;28;20032;-62
2023/05/06 04:51:55;;;;;;;11.57;5.47;;;;;;;;;;5067283;28;20128;-62
2023/05/06 04:54:21;;;;;;;16.48;5.80;;;;;;;;;;5063377;28;20045;-62
2023/05/06 04:56:47;;;;;;;14.65;5.30;;;;;;;;;;5064181;28;20516;-62
2023/05/06 04:59:13;;;;;;;8.05;5.43;;;;;;;;;;5069253;28;20036;-61
2023/05/06 05:01:39;;;;;;;4.97;4.47;;;;;;;;;;5068295;28;20040;-62
2023/05/06 05:04:06;;;;;;;7.65;5.75;;;;;;;;;;5060827;28;20236;-61
2023/05/06 05:06:32;;;;;;;14.15;6.10;;;;;;;;;;5062956;28;20070;-61
2023/05/06 05:08:58;;;;;;;10.20;6.15;;;;;;;;;;5069545;28;20044;-62
2023/05/06 05:11:24;;;;;;;7.40;6.50;;;;;;;;;;5067833;28;20068;-62
2023/05/06 05:13:50;;;;;;;12.27;6.68;;;;;;;;;;5068764;28;20379;-62
2023/05/06 05:16:16;;;;;;;12.23;7.00;;;;;;;;;;5071091;28;20041;-62
2023/05/06 05:18:42;;;;;;;14.40;8.43;;;;;;;;;;5070613;28;20042;-62
2023/05/06 05:21:08;;;;;;;19.58;7.47;;;;;;;;;;5070039;28;20028;-62
2023/05/06 05:23:34;;;;;;;9.25;7.57;;;;;;;;;;5071734;28;20035;-62
2023/05/06 05:26:00;;;;;;;8.50;7.43;;;;;;;;;;5074253;28;20257;-62
2023/05/06 05:28:29;;;;;;;10.88;8.45;;;;;;;;;;5075623;28;20132;-62
2023/05/06 05:30:54;;;;;;;13.05;9.43;;;;;;;;;;5075161;28;20055;-62
2023/05/06 05:33:20;;;;;;;12.55;9.90;;;;;;;;;;5074177;28;21037;-62
2023/05/06 05:35:46;;;;;;;11.20;9.82;;;;;;;;;;5072559;28;20094;-62
2023/05/06 05:38:13;;;;;;;14.93;10.88;;;;;;;;;;5074306;28;20048;-62
2023/05/06 05:40:39;;;;;;;14.05;11.07;;;;;;;;;;5074490;28;20201;-62
2023/05/06 05:43:05;;;;;;;16.00;12.05;;;;;;;;;;5074470;28;20044;-62
2023/05/06 05:45:31;;;;;;;15.90;11.90;;;;;;;;;;5074110;28;20044;-62
2023/05/06 05:47:57;;;;;;;16.77;12.85;;;;;;;;;;5074322;28;20048;-62
2023/05/06 05:50:23;;;;;;;20.35;14.82;;;;;;;;;;5073076;28;20486;-62
2023/05/06 05:52:49;;;;;;;20.23;13.95;;;;;;;;;;5073464;28;20070;-62
2023/05/06 05:55:15;;;;;;;21.15;15.07;;;;;;;;;;5074211;28;20119;-62
2023/05/06 05:57:41;;;;;;;22.25;14.98;;;;;;;;;;5073697;28;20063;-62
2023/05/06 06:00:08;;;;;;;26.50;16.40;;;;;;;;;;5074454;28;20072;-61
2023/05/06 06:02:34;;;;;;;28.58;18.20;;;;;;;;;;5074513;28;20130;-61
2023/05/06 06:05:00;;;;;;;29.02;18.58;;;;;;;;;;5072439;28;20086;-61
2023/05/06 06:07:26;;;;;;;30.98;19.38;;;;;;;;;;5064091;28;20428;-62
2023/05/06 06:09:52;;;;;;;32.67;20.60;;;;;;;;;;5070937;28;20044;-62
2023/05/06 06:12:18;;;;;;;31.05;20.55;;;;;;;;;;5080344;28;20419;-62
2023/05/06 06:14:46;;;;;;;35.17;20.60;;;;;;;;;;5073161;28;20036;-62
2023/05/06 06:17:13;;;;;;;33.92;21.58;;;;;;;;;;5074329;28;20059;-62
2023/05/06 06:19:39;;;;;;;27.98;19.42;;;;;;;;;;5061559;28;20509;-62
2023/05/06 06:22:05;;;;;;;33.45;20.05;;;;;;;;;;5069591;28;20089;-62
2023/05/06 06:24:33;;;;;;;29.60;18.08;;;;;;;;;;5065710;28;20055;-62
2023/05/06 06:27:00;;;;;;;26.83;17.45;;;;;;;;;;5065403;28;20048;-61
2023/05/06 06:29:26;;;;;;;28.42;19.00;;;;;;;;;;5065645;28;20532;-62
2023/05/06 06:31:54;;;;;;;30.85;18.98;;;;;;;;;;5068472;28;20036;-62
2023/05/06 06:34:20;;;;;;;32.17;19.77;;;;;;;;;;5067785;28;20048;-62
2023/05/06 06:36:46;;;;;;;30.48;19.58;;;;;;;;;;5070090;28;20056;-62
2023/05/06 06:39:12;;;;;;;35.17;21.55;;;;;;;;;;5070551;28;20032;-62
2023/05/06 06:41:38;;;;;;;34.97;19.27;;;;;;;;;;5072000;28;20416;-62
2023/05/06 06:44:05;;;;;;;34.92;19.73;;;;;;;;;;5072421;28;20060;-62
2023/05/06 06:46:31;;;;;;;35.05;20.27;;;;;;;;;;5070849;28;20067;-62
2023/05/06 06:48:57;;;;;;;33.28;19.33;;;;;;;;;;5070514;28;20115;-62
2023/05/06 06:51:23;;;;;;;33.47;19.73;;;;;;;;;;5074800;28;20120;-62
2023/05/06 06:53:51;;;;;;;37.67;17.98;;;;;;;;;;5067381;28;20036;-62
2023/05/06 06:56:17;;;;;;;38.97;20.38;;;;;;;;;;5068082;28;20032;-61
2023/05/06 06:58:43;;;;;;;39.10;20.15;;;;;;;;;;5073242;28;20037;-61
2023/05/06 07:01:09;;;;;;;37.05;19.85;;;;;;;;;;5071786;28;20398;-61
2023/05/06 07:03:35;;;;;;;38.50;20.30;;;;;;;;;;5070183;28;20402;-62
2023/05/06 07:06:01;;;;;;;36.00;19.60;;;;;;;;;;5067058;28;20106;-62
2023/05/06 07:08:27;;;;;;;36.08;18.95;;;;;;;;;;5072543;28;20036;-61
2023/05/06 07:10:54;;;;;;;33.33;18.88;;;;;;;;;;5067521;28;20413;-62
2023/05/06 07:13:22;;;;;;;37.00;19.45;;;;;;;;;;5072080;28;20048;-61
2023/05/06 07:15:48;;;;;;;36.45;20.35;;;;;;;;;;5070689;28;20072;-62
2023/05/06 07:18:14;;;;;;;35.92;20.67;;;;;;;;;;5068781;28;20474;-61
2023/05/06 07:20:40;;;;;;;34.33;20.38;;;;;;;;;;5070665;28;20183;-62
2023/05/06 07:23:06;;;;;;;35.03;19.73;;;;;;;;;;5069387;28;20047;-62
2023/05/06 07:25:32;;;;;;;32.78;19.85;;;;;;;;;;5066722;28;20487;-62
2023/05/06 07:27:58;;;;;;;32.25;19.70;;;;;;;;;;5069743;28;20044;-62
2023/05/06 07:30:24;;;;;;;28.75;17.48;;;;;;;;;;5070891;28;20043;-62
2023/05/06 07:32:50;;;;;;;29.20;18.30;;;;;;;;;;5070333;28;20044;-63
2023/05/06 07:35:16;;;;;;;35.13;20.08;;;;;;;;;;5080782;22;20292;-65
2023/05/06 07:37:42;;;;;;;33.20;19.30;;;;;;;;;;5068509;28;20056;-65
2023/05/06 07:40:08;;;;;;;35.05;20.58;;;;;;;;;;5067522;28;20110;-65
2023/05/06 07:42:34;;;;;;;38.15;21.42;;;;;;;;;;5066129;28;20037;-65
2023/05/06 07:45:00;;;;;;;36.25;20.90;;;;;;;;;;5069311;28;20086;-65
2023/05/06 07:47:27;;;;;;;38.47;21.52;;;;;;;;;;5069943;28;20036;-65
2023/05/06 07:49:53;;;;;;;37.85;21.38;;;;;;;;;;5071804;28;20076;-65
2023/05/06 07:52:19;;;;;;;40.38;23.23;;;;;;;;;;5062956;28;20029;-65
2023/05/06 07:54:45;;;;;;;39.42;21.40;;;;;;;;;;5064869;28;20494;-65
2023/05/06 07:57:11;;;;;;;40.63;22.58;;;;;;;;;;5067950;28;20079;-65
2023/05/06 07:59:37;;;;;;;37.58;21.08;;;;;;;;;;5070715;28;20051;-65
2023/05/06 08:02:03;;;;;;;38.20;21.00;;;;;;;;;;5064435;28;20035;-65
2023/05/06 08:04:29;;;;;;;34.33;20.27;;;;;;;;;;5070270;28;20036;-65
2023/05/06 08:06:56;;;;;;;31.88;18.60;;;;;;;;;;5068214;28;20443;-65
2023/05/06 08:09:22;;;;;;;32.63;19.27;;;;;;;;;;5064337;28;20086;-65
2023/05/06 08:11:49;;;;;;;31.15;17.77;;;;;;;;;;5044142;28;20405;-65
2023/05/06 08:14:14;;;;;;;32.78;18.23;;;;;;;;;;5040450;28;20048;-65
2023/05/06 08:16:40;;;;;;;32.92;18.38;;;;;;;;;;5047822;28;20379;-66
2023/05/06 08:19:07;;;;;;;32.70;18.42;;;;;;;;;;5056007;28;20032;-65
2023/05/06 08:21:33;;;;;;;33.20;18.38;;;;;;;;;;5060550;28;20044;-65
2023/05/06 08:23:58;;;;;;;33.35;19.63;;;;;;;;;;5068084;28;20040;-65
2023/05/06 08:26:24;;;;;;;35.13;20.65;;;;;;;;;;5068667;28;20120;-65
2023/05/06 08:28:50;;;;;;;35.97;21.13;;;;;;;;;;5074447;28;20513;-65
2023/05/06 08:31:16;;;;;;;34.95;20.42;;;;;;;;;;5068623;28;20051;-65
2023/05/06 08:33:42;;;;;;;33.45;20.85;;;;;;;;;;5070041;28;20093;-65
2023/05/06 08:36:08;;;;;;;34.97;20.95;;;;;;;;;;5070571;28;20425;-65
2023/05/06 08:38:35;;;;;;;32.50;20.48;;;;;;;;;;5067767;28;20119;-64
2023/05/06 08:41:07;;;;;;;35.15;20.48;;;;;;;;;;5064825;28;20064;-65
2023/05/06 08:43:34;;;;;;;33.65;19.98;;;;;;;;;;5063001;28;20486;-65
2023/05/06 08:46:00;;;;;;;35.03;19.23;;;;;;;;;;5066118;28;20494;-65
2023/05/06 08:48:28;;;;;;;32.78;19.63;;;;;;;;;;5070176;28;20075;-66
2023/05/06 08:50:56;;;;;;;31.75;18.42;;;;;;;;;;5069352;28;20048;-66
2023/05/06 08:53:22;;;;;;;32.42;19.48;;;;;;;;;;5050423;28;20074;-65
2023/05/06 08:55:50;;;;;;;33.58;18.98;;;;;;;;;;5049409;28;20055;-66
2023/05/06 08:58:16;;;;;;;28.75;16.45;;;;;;;;;;5064117;28;20051;-66
2023/05/06 09:00:42;;;;;;;33.35;16.17;;;;;;;;;;5068392;28;20055;-66
2023/05/06 09:03:08;;;;;;;31.65;18.05;;;;;;;;;;5067027;28;20041;-65
2023/05/06 09:05:34;;;;;;;28.77;14.25;;;;;;;;;;5066250;28;20049;-67
2023/05/06 09:08:00;;;;;;;25.92;16.15;;;;;;;;;;5047168;28;20125;-67
2023/05/06 09:10:31;;;;;;;27.33;15.57;;;;;;;;;;5064381;28;20432;-66
2023/05/06 09:12:57;;;;;;;27.10;15.82;;;;;;;;;;5059069;28;20140;-66
2023/05/06 09:15:24;;;;;;;26.10;15.05;;;;;;;;;;5069360;28;20505;-66
2023/05/06 09:17:51;;;;;;;25.27;15.18;;;;;;;;;;5066872;28;20045;-65
2023/05/06 09:20:17;;;;;;;30.70;16.98;;;;;;;;;;5063754;28;20036;-65
2023/05/06 09:22:43;;;;;;;29.42;17.35;;;;;;;;;;5067027;28;20041;-65
2023/05/06 09:25:10;;;;;;;27.73;15.60;;;;;;;;;;5068738;28;20045;-66
2023/05/06 09:27:36;;;;;;;32.20;17.80;;;;;;;;;;5070326;28;20403;-65
2023/05/06 09:30:04;;;;;;;29.10;15.27;;;;;;;;;;5051859;28;20047;-66
2023/05/06 09:32:30;;;;;;;31.38;18.40;;;;;;;;;;5066474;28;20050;-65
2023/05/06 09:34:56;;;;;;;27.15;16.35;;;;;;;;;;5070582;28;20033;-63
2023/05/06 09:37:22;;;;;;;28.92;16.98;;;;;;;;;;5069338;28;20095;-63
2023/05/06 09:39:52;;;;;;;30.77;18.58;;;;;;;;;;5070270;28;20041;-63
2023/05/06 09:42:19;;;;;;;28.90;17.87;;;;;;;;;;5069922;28;20048;-63
2023/05/06 09:44:45;;;;;;;32.85;17.20;;;;;;;;;;5070430;28;20082;-63
2023/05/06 09:47:11;;;;;;;29.15;16.23;;;;;;;;;;5070223;28;20040;-63
2023/05/06 09:49:37;;;;;;;26.33;16.23;;;;;;;;;;5069105;28;20032;-62
2023/05/06 09:52:03;;;;;;;27.55;16.83;;;;;;;;;;5066637;28;20079;-64
2023/05/06 09:54:29;;;;;;;23.83;14.75;;;;;;;;;;5066911;28;20064;-64
2023/05/06 09:56:55;;;;;;;23.23;14.52;;;;;;;;;;5070325;28;20040;-63
2023/05/06 09:59:22;;;;;;;21.23;13.57;;;;;;;;;;5047086;28;20040;-64
2023/05/06 10:01:48;;;;;;;19.52;12.13;;;;;;;;;;5069109;28;20040;-65
2023/05/06 10:04:15;;;;;;;22.55;13.13;;;;;;;;;;5067507;28;20371;-65
2023/05/06 10:06:41;;;;;;;21.40;13.27;;;;;;;;;;5070251;28;20494;-65
2023/05/06 10:09:08;;;;;;;21.20;13.15;;;;;;;;;;5069864;28;20036;-65
2023/05/06 10:11:35;;;;;;;23.63;14.73;;;;;;;;;;5074215;28;20445;-65
2023/05/06 10:14:01;;;;;;;21.33;13.82;;;;;;;;;;5072309;28;20370;-65
2023/05/06 10:16:27;;;;;;;23.05;13.95;;;;;;;;;;5073203;28;20040;-65
2023/05/06 10:18:54;;;;;;;23.33;14.50;;;;;;;;;;5072301;28;20097;-65
2023/05/06 10:21:23;;;;;;;19.08;12.93;;;;;;;;;;5074380;28;20044;-65
2023/05/06 10:24:08;;;;;;;23.35;13.98;;;;;;;;;;5074796;28;20041;-65
2023/05/06 10:26:38;;;;;;;18.55;13.45;;;;;;;;;;5056400;28;20058;-64
2023/05/06 10:29:06;;;;;;;19.83;12.63;;;;;;;;;;5065453;28;20095;-65
2023/05/06 10:31:33;;;;;;;19.23;12.88;;;;;;;;;;5074140;28;20043;-64
2023/05/06 10:34:01;;;;;;;17.33;12.35;;;;;;;;;;5073696;28;20051;-65
2023/05/06 10:36:30;;;;;;;17.77;11.82;;;;;;;;;;5072491;28;20028;-64
2023/05/06 10:39:02;;;;;;;18.38;13.30;;;;;;;;;;5073892;28;20119;-64
2023/05/06 10:41:28;;;;;;;18.20;11.82;;;;;;;;;;5073833;28;20044;-64
2023/05/06 10:43:55;;;;;;;17.10;11.68;;;;;;;;;;5069134;28;20035;-64
2023/05/06 10:46:22;;;;;;;18.40;11.07;;;;;;;;;;5069558;28;20067;-64
2023/05/06 10:49:03;;;;;;;14.82;11.02;;;;;;;;;;5072224;28;20041;-65
2023/05/06 10:51:30;;;;;;;16.33;11.02;;;;;;;;;;5071788;28;20052;-65
2023/05/06 10:53:59;;;;;;;16.20;11.00;;;;;;;;;;5072050;28;20049;-65
2023/05/06 10:56:25;;;;;;;17.60;11.82;;;;;;;;;;5052312;28;20036;-62
2023/05/06 10:58:51;;;;;;;17.15;10.43;;;;;;;;;;5071241;28;20048;-63
2023/05/06 11:01:20;;;;;;;18.63;11.23;;;;;;;;;;5073246;28;20509;-63
2023/05/06 11:03:46;;;;;;;18.48;12.82;;;;;;;;;;5072637;28;20089;-63
2023/05/06 11:06:12;;;;;;;18.58;12.35;;;;;;;;;;5072928;28;20127;-64
2023/05/06 12:14:52;;;;;;;19.80;15.45;;;21.10;99.90;;;;;;5109085;27;20327;-64
2023/05/06 12:17:18;;;;;;;19.60;16.13;;;20.80;99.90;;;;;;5095242;28;20043;-64
2023/05/06 12:19:45;;;;;;;20.42;16.55;;;20.60;99.90;;;;;;5104487;28;20123;-65
2023/05/06 12:22:21;;;;;;;21.67;16.35;;;20.40;99.90;;;;;;5108294;28;20044;-65
2023/05/06 12:24:47;;;;;;;20.35;16.13;;;20.30;99.90;;;;;;5105109;28;20040;-63
2023/05/06 12:27:13;;;;;;;19.60;16.13;;;20.20;99.90;;;;;;5107710;28;20035;-63
2023/05/06 12:29:39;;;;;;;22.80;16.67;;;20.10;99.90;;;;;;5094444;28;20486;-65
2023/05/06 12:32:09;;;;;;;18.60;14.68;;;19.90;99.90;;;;;;5095067;28;20119;-65
2023/05/06 12:34:40;;;;;;;20.83;16.15;;;19.90;99.90;;;;;;5103033;28;20366;-65
2023/05/06 12:37:09;;;;;;;21.65;15.73;;;19.90;99.90;;;;;;5103483;28;20509;-65
2023/05/06 12:39:37;;;;;;;19.70;16.05;;;19.80;99.90;;;;;;5108936;28;20040;-65
2023/05/06 12:42:02;;;;;;;21.67;15.55;;;19.90;99.90;;;;;;5104953;28;20093;-65
2023/05/06 12:44:31;;;;;;;17.58;15.27;;;19.90;99.90;;;;;;5096294;28;20044;-64
2023/05/06 12:47:02;;;;;;;20.90;14.95;;;19.90;99.90;;;;;;5105042;28;20039;-64
2023/05/06 12:49:56;;;;;;;17.98;14.35;;;20.00;99.90;;;;;;5095230;28;20040;-65
2023/05/06 12:52:27;;;;;;;17.30;14.52;;;20.10;99.90;;;;;;5095595;28;20044;-65
2023/05/06 12:54:53;;;;;;;19.98;14.95;;;20.20;99.90;;;;;;5102952;28;20085;-65
2023/05/06 12:57:19;;;;;;;16.10;13.38;;;20.40;99.90;;;;;;5104884;28;20055;-65
2023/05/06 12:59:45;;;;;;;17.02;13.38;;;20.50;99.90;;;;;;5104339;28;20043;-65
2023/05/06 13:02:12;;;;;;;13.02;11.48;;;20.70;99.90;;;;;;5107021;28;20035;-65
2023/05/06 13:04:38;;;;;;;14.85;13.02;;;20.80;99.90;;;;;;5108017;28;20074;-65
2023/05/06 13:07:03;;;;;;;16.73;13.85;;;20.90;99.90;;;;;;5106363;28;20115;-65
2023/05/06 13:09:29;;;;;;;14.88;13.30;;;21.00;99.90;;;;;;5103073;28;20118;-65
2023/05/06 13:11:54;;;;;;;17.45;14.50;;;20.90;99.90;;;;;;5107388;28;20039;-65
2023/05/06 13:14:21;;;;;;;17.02;14.50;;;20.80;99.90;;;;;;5107199;28;20064;-65
2023/05/06 13:16:47;;;;;;;20.05;15.77;;;20.70;99.90;;;;;;5108239;28;20390;-65
2023/05/06 13:19:13;;;;;;;21.77;17.65;;;20.60;99.90;;;;;;5106626;28;20048;-65
2023/05/06 13:21:39;;;;;;;18.33;15.95;;;20.40;99.90;;;;;;5106871;28;20043;-64
2023/05/06 13:24:06;;;;;;;20.10;16.83;;;20.30;99.90;;;;;;5104982;28;20508;-64
2023/05/06 13:26:32;;;;;;;19.65;15.27;;;20.20;99.90;;;;;;5089635;28;20032;-65
2023/05/06 13:28:58;;;;;;;19.85;14.60;;;20.10;99.90;;;;;;5086993;28;20044;-65
2023/05/06 13:31:26;;;;;;;17.27;14.43;;;20.00;99.90;;;;;;5091482;28;20055;-65
2023/05/06 13:33:51;;;;;;;18.40;15.20;;;20.10;99.90;;;;;;5082308;28;20048;-65
2023/05/06 13:36:17;;;;;;;20.50;16.35;;;20.10;99.90;;;;;;5089394;22;20029;-62
2023/05/06 13:38:42;;;;;;;23.27;16.83;;;20.30;99.90;;;;;;5053285;28;20047;-62
2023/05/06 13:41:08;;;;;;;22.75;17.33;;;20.40;99.90;;;;;;5049887;28;20033;-62
2023/05/06 13:43:33;;;;;;;23.73;18.27;;;20.60;99.90;;;;;;5052065;28;20037;-62
2023/05/06 13:45:59;;;;;;;22.35;17.33;;;20.80;99.90;;;;;;5061100;28;20124;-62
2023/05/06 13:48:24;;;;;;;22.70;16.27;;;21.00;99.90;;;;;;5073292;28;20094;-62
2023/05/06 13:50:50;;;;;;;23.52;17.50;;;21.10;99.90;;;;;;5068465;28;20036;-62
2023/05/06 13:53:16;;;;;;;19.95;14.77;;;21.20;99.90;;;;;;5067652;28;20040;-62
2023/05/06 13:55:45;;;;;;;17.67;13.55;;;21.20;99.90;;;;;;5071633;28;20051;-62
2023/05/06 13:58:11;;;;;;;19.27;13.23;;;21.20;99.90;;;;;;5071518;28;20468;-62
2023/05/06 14:00:37;;;;;;;15.60;13.18;;;21.10;99.90;;;;;;5071522;28;20036;-63
2023/05/06 14:03:03;;;;;;;20.88;14.93;;;21.00;99.90;;;;;;5054330;28;20409;-62
2023/05/06 14:05:28;;;;;;;18.65;13.95;;;20.90;99.90;;;;;;5070747;28;20558;-63
2023/05/06 14:07:54;;;;;;;13.88;11.52;;;20.80;99.90;;;;;;5069018;28;20119;-63
2023/05/06 14:10:19;;;;;;;15.55;12.00;;;20.70;99.90;;;;;;5066802;28;20086;-64
2023/05/06 14:12:46;;;;;;;16.33;11.63;;;20.70;99.90;;;;;;5069331;28;20040;-63
2023/05/06 14:15:13;;;;;;;15.70;11.02;;;20.60;99.90;;;;;;5066022;28;20043;-63
2023/05/06 14:17:39;;;;;;;14.73;11.10;;;20.50;99.90;;;;;;5068600;28;20410;-63
2023/05/06 14:20:07;;;;;;;18.60;11.85;;;20.50;99.90;;;;;;5064156;28;20123;-63
2023/05/06 14:22:33;;;;;;;16.33;12.73;;;20.50;99.90;;;;;;5057243;28;20036;-63
2023/05/06 14:24:59;;;;;;;17.10;12.75;;;20.40;99.90;;;;;;5064478;28;20075;-62
2023/05/06 14:27:25;;;;;;;20.42;13.00;;;20.40;99.90;;;;;;5056769;28;20064;-63
2023/05/06 14:29:50;;;;;;;23.95;15.73;;;20.50;99.90;;;;;;5068604;28;20035;-63
2023/05/06 14:32:16;;;;;;;26.38;17.60;;;20.60;99.90;;;;;;5063627;28;20037;-63
2023/05/06 14:34:41;;;;;;;23.75;16.85;;;20.60;99.90;;;;;;5061151;28;20052;-63
2023/05/06 14:37:07;;;;;;;20.33;15.48;;;20.50;99.90;;;;;;5043185;28;20044;-63
2023/05/06 14:39:33;;;;;;;23.60;16.67;;;20.50;99.90;;;;;;5068211;28;20029;-62
2023/05/06 14:41:58;;;;;;;25.02;16.70;;;20.40;99.90;;;;;;5066609;28;20392;-63
2023/05/06 14:44:24;;;;;;;23.75;16.05;;;20.40;99.90;;;;;;5067046;28;20504;-63
2023/05/06 14:46:49;;;;;;;22.35;15.05;;;20.40;99.90;;;;;;5070213;28;20147;-63
2023/05/06 14:49:15;;;;;;;23.05;15.82;;;20.40;99.90;;;;;;5070655;28;20071;-63
2023/05/06 14:51:44;;;;;;;20.23;14.18;;;20.30;99.90;;;;;;5068163;28;20036;-63
2023/05/06 14:54:10;;;;;;;19.92;14.07;;;20.30;99.90;;;;;;5051869;28;20513;-63
2023/05/06 14:56:36;;;;;;;18.15;12.70;;;20.30;99.90;;;;;;5061168;28;20033;-62
2023/05/06 14:59:02;;;;;;;17.40;13.23;;;20.20;99.90;;;;;;5068158;28;20024;-62
2023/05/06 15:01:29;;;;;;;17.67;13.10;;;20.20;99.90;;;;;;5062289;28;20036;-63